createdAt,value
2022-11-18T00:00:23.749Z,2.67
2022-11-18T00:03:25.971Z,2.03
2022-11-18T00:06:29.683Z,2.53
2022-11-18T00:09:31.956Z,2.70
2022-11-18T00:12:52.724Z,2.57
2022-11-18T00:16:09.751Z,3.03
2022-11-18T00:19:12.188Z,2.50
2022-11-18T00:22:14.836Z,2.33
2022-11-18T00:25:17.111Z,2.40
2022-11-18T00:28:19.393Z,2.80
2022-11-18T00:31:21.695Z,2.47
2022-11-18T00:34:24.642Z,2.67
2022-11-18T00:37:26.919Z,2.78
2022-11-18T00:40:29.136Z,2.38
2022-11-18T00:43:32.078Z,2.67
2022-11-18T00:46:34.289Z,2.73
2022-11-18T00:49:36.486Z,2.55
2022-11-18T00:52:38.813Z,2.53
2022-11-18T00:55:41.823Z,3.10
2022-11-18T00:58:44.802Z,2.93
2022-11-18T01:01:47.194Z,3.00
2022-11-18T01:04:49.657Z,2.70
2022-11-18T01:07:51.929Z,2.50
2022-11-18T01:10:54.244Z,2.33
2022-11-18T01:13:56.588Z,2.37
2022-11-18T01:16:58.912Z,2.93
2022-11-18T01:20:01.274Z,2.75
2022-11-18T01:23:04.283Z,2.63
2022-11-18T01:26:09.674Z,2.50
2022-11-18T01:29:11.947Z,2.83
2022-11-18T01:32:29.573Z,2.70
2022-11-18T01:35:39.879Z,2.70
2022-11-18T01:38:42.198Z,2.40
2022-11-18T01:41:44.426Z,2.63
2022-11-18T01:45:05.169Z,2.33
2022-11-18T01:48:22.455Z,2.50
2022-11-18T01:51:29.174Z,2.38
2022-11-18T01:54:37.152Z,2.30
2022-11-18T01:57:40.847Z,2.55
2022-11-18T02:00:43.145Z,2.90
2022-11-18T02:03:46.810Z,2.87
2022-11-18T02:06:49.126Z,2.70
2022-11-18T02:09:53.503Z,2.40
2022-11-18T02:12:56.801Z,2.28
2022-11-18T02:16:15.917Z,2.53
2022-11-18T02:19:49.965Z,2.57
2022-11-18T02:23:10.664Z,2.40
2022-11-18T02:26:24.852Z,2.65
2022-11-18T02:29:34.003Z,2.30
2022-11-18T02:32:36.168Z,2.80
2022-11-18T02:35:47.529Z,2.70
2022-11-18T02:38:57.453Z,2.40
2022-11-18T02:42:04.910Z,2.50
2022-11-18T02:45:12.622Z,2.78
2022-11-18T02:48:16.496Z,2.50
2022-11-18T02:51:25.359Z,2.30
2022-11-18T02:54:29.448Z,2.60
2022-11-18T02:57:34.910Z,2.85
2022-11-18T03:00:37.229Z,2.53
2022-11-18T03:03:39.464Z,2.73
2022-11-18T03:06:45.593Z,2.57
2022-11-18T03:09:51.641Z,2.65
2022-11-18T03:13:18.806Z,2.53
2022-11-18T03:16:29.580Z,2.72
2022-11-18T03:19:48.100Z,2.30
2022-11-18T03:23:00.870Z,2.40
2022-11-18T03:26:12.630Z,2.50
2022-11-18T03:29:23.556Z,2.40
2022-11-18T03:32:32.548Z,2.78
2022-11-18T03:35:38.566Z,2.63
2022-11-18T03:38:48.071Z,2.30
2022-11-18T03:41:56.906Z,2.30
2022-11-18T03:45:07.401Z,2.35
2022-11-18T03:48:16.806Z,2.35
2022-11-18T03:51:24.770Z,2.70
2022-11-18T03:54:30.930Z,2.67
2022-11-18T03:57:50.230Z,2.72
2022-11-18T04:01:01.431Z,2.70
2022-11-18T04:04:04.639Z,2.70
2022-11-18T04:07:28.599Z,2.60
2022-11-18T04:10:40.656Z,2.50
2022-11-18T04:13:43.163Z,2.35
2022-11-18T04:16:45.665Z,2.22
2022-11-18T04:19:47.945Z,2.17
2022-11-18T04:22:50.545Z,3.10
2022-11-18T04:25:52.797Z,2.80
2022-11-18T04:28:55.061Z,2.55
2022-11-18T04:31:57.437Z,2.40
2022-11-18T04:34:59.790Z,2.35
2022-11-18T04:38:01.977Z,2.50
2022-11-18T04:41:04.292Z,2.10
2022-11-18T04:44:13.349Z,2.50
2022-11-18T04:47:15.839Z,2.15
2022-11-18T04:50:18.251Z,2.50
2022-11-18T04:53:20.523Z,2.63
2022-11-18T04:56:22.773Z,2.60
2022-11-18T04:59:28.180Z,2.63
2022-11-18T05:02:30.382Z,2.25
2022-11-18T05:05:34.714Z,2.70
2022-11-18T05:08:37.121Z,2.40
2022-11-18T05:11:57.950Z,2.33
2022-11-18T05:15:01.016Z,2.20
2022-11-18T05:18:03.401Z,2.58
2022-11-18T05:21:06.196Z,2.63
2022-11-18T05:24:08.537Z,2.47
2022-11-18T05:27:11.524Z,3.07
2022-11-18T05:30:14.172Z,2.92
2022-11-18T05:33:16.458Z,2.42
2022-11-18T05:36:20.850Z,2.50
2022-11-18T05:39:23.161Z,2.23
2022-11-18T05:46:20.078Z,2.83
2022-11-18T05:49:46.171Z,2.25
2022-11-18T05:52:48.475Z,2.55
2022-11-18T05:56:26.900Z,2.60
2022-11-18T05:59:29.250Z,2.67
2022-11-18T06:02:31.557Z,2.83
2022-11-18T06:05:33.837Z,3.10
2022-11-18T06:08:44.710Z,3.65
2022-11-18T06:13:02.998Z,3.00
2022-11-18T06:16:05.644Z,2.93
2022-11-18T06:19:08.360Z,3.45
2022-11-18T06:22:10.808Z,3.65
2022-11-18T06:25:13.146Z,3.78
2022-11-18T06:28:17.272Z,3.90
2022-11-18T06:31:19.637Z,3.30
2022-11-18T06:34:21.957Z,3.97
2022-11-18T06:37:24.248Z,3.88
2022-11-18T06:40:31.651Z,4.43
2022-11-18T06:43:42.580Z,4.30
2022-11-18T06:46:57.215Z,4.37
2022-11-18T06:49:59.460Z,4.70
2022-11-18T06:53:01.706Z,4.45
2022-11-18T06:56:09.288Z,4.75
2022-11-18T06:59:11.689Z,4.63
2022-11-18T07:02:20.350Z,4.93
2022-11-18T07:05:22.650Z,5.25
2022-11-18T07:08:24.870Z,5.13
2022-11-18T07:11:27.747Z,5.10
2022-11-18T07:14:30.550Z,5.50
2022-11-18T07:17:32.980Z,6.30
2022-11-18T07:20:35.289Z,6.32
2022-11-18T07:23:38.032Z,6.53
2022-11-18T07:26:40.444Z,6.53
2022-11-18T07:29:42.653Z,6.43
2022-11-18T07:32:44.923Z,6.70
2022-11-18T07:35:47.216Z,7.20
2022-11-18T07:38:49.926Z,7.35
2022-11-18T07:41:52.300Z,6.57
2022-11-18T07:44:54.540Z,6.47
2022-11-18T07:47:56.786Z,6.80
2022-11-18T07:51:01.393Z,6.88
2022-11-18T07:54:12.628Z,6.47
2022-11-18T07:57:14.881Z,6.43
2022-11-18T08:00:17.750Z,6.20
2022-11-18T08:03:20.340Z,5.97
2022-11-18T08:06:22.709Z,6.30
2022-11-18T08:09:25.273Z,5.72
2022-11-18T08:12:27.805Z,6.20
2022-11-18T08:15:30.133Z,6.37
2022-11-18T08:18:33.111Z,6.40
2022-11-18T08:21:35.588Z,6.65
2022-11-18T08:24:37.933Z,5.93
2022-11-18T08:27:40.367Z,6.68
2022-11-18T08:30:42.937Z,6.50
2022-11-18T08:33:46.296Z,6.60
2022-11-18T08:36:48.753Z,6.70
2022-11-18T08:39:51.048Z,6.53
2022-11-18T08:42:53.355Z,6.72
2022-11-18T08:45:55.689Z,6.50
2022-11-18T08:48:58.452Z,6.90
2022-11-18T08:52:00.789Z,6.43
2022-11-18T08:55:03.218Z,6.78
2022-11-18T08:58:05.598Z,6.70
2022-11-18T09:01:09.347Z,6.97
2022-11-18T09:04:11.831Z,6.37
2022-11-18T09:07:14.438Z,6.40
2022-11-18T09:10:16.935Z,6.00
2022-11-18T09:13:44.857Z,6.28
2022-11-18T09:16:41.573Z,6.83
2022-11-18T09:19:48.219Z,6.70
2022-11-18T09:22:50.926Z,6.55
2022-11-18T09:27:03.090Z,5.85
2022-11-18T09:30:06.280Z,5.70
2022-11-18T09:33:08.617Z,5.73
2022-11-18T09:36:22.917Z,6.43
2022-11-18T09:39:52.159Z,6.47
2022-11-18T09:43:12.828Z,6.47
2022-11-18T09:46:25.716Z,6.28
2022-11-18T09:49:37.157Z,6.30
2022-11-18T09:52:52.624Z,6.43
2022-11-18T09:56:14.733Z,6.07
2022-11-18T09:59:20.175Z,5.82
2022-11-18T10:03:01.099Z,6.28
2022-11-18T10:06:35.879Z,6.00
2022-11-18T10:09:41.413Z,5.47
2022-11-18T10:13:02.338Z,5.70
2022-11-18T10:16:25.889Z,5.72
2022-11-18T10:20:45.944Z,5.30
2022-11-18T10:23:56.114Z,5.67
2022-11-18T10:27:00.434Z,5.40
2022-11-18T10:30:03.076Z,5.65
2022-11-18T10:33:23.805Z,5.15
2022-11-18T10:36:28.069Z,5.20
2022-11-18T10:39:30.678Z,5.60
2022-11-18T10:42:51.182Z,5.40
2022-11-18T10:45:53.412Z,5.60
2022-11-18T10:49:10.865Z,5.35
2022-11-18T10:52:14.513Z,5.75
2022-11-18T10:55:23.418Z,5.03
2022-11-18T10:58:27.305Z,4.97
2022-11-18T11:01:29.817Z,4.85
2022-11-18T11:04:32.878Z,4.70
2022-11-18T11:07:37.506Z,4.97
2022-11-18T11:10:39.904Z,5.10
2022-11-18T11:13:44.828Z,4.70
2022-11-18T11:17:12.191Z,4.93
2022-11-18T11:21:10.791Z,4.47
2022-11-18T11:24:13.208Z,5.22
2022-11-18T11:31:16.944Z,5.47
2022-11-18T11:34:28.294Z,4.78
2022-11-18T11:37:47.288Z,4.95
2022-11-18T11:41:06.412Z,4.75
2022-11-18T11:44:50.001Z,5.57
2022-11-18T11:48:11.101Z,4.77
2022-11-18T11:51:49.057Z,5.07
2022-11-18T11:55:11.924Z,4.30
2022-11-18T11:58:52.450Z,4.45
2022-11-18T12:02:22.871Z,4.20
2022-11-18T12:05:34.460Z,4.40
2022-11-18T12:08:39.698Z,4.88
2022-11-18T12:16:58.898Z,5.13
2022-11-18T12:24:38.601Z,4.22
2022-11-18T12:27:41.002Z,4.53
2022-11-18T12:30:43.314Z,4.80
2022-11-18T12:33:48.075Z,4.80
2022-11-18T12:36:50.378Z,4.20
2022-11-18T12:40:56.866Z,4.63
2022-11-18T12:43:59.141Z,5.00
2022-11-18T12:47:02.801Z,4.60
2022-11-18T12:50:16.249Z,4.72
2022-11-18T12:58:30.091Z,4.47
2022-11-18T13:01:37.259Z,4.85
2022-11-18T13:10:19.948Z,5.28
2022-11-18T13:17:47.899Z,5.05
2022-11-18T13:20:58.457Z,4.45
2022-11-18T13:25:09.128Z,4.05
2022-11-18T13:28:33.053Z,4.20
2022-11-18T13:31:57.320Z,4.00
2022-11-18T13:35:18.651Z,4.32
2022-11-18T13:38:28.028Z,4.30
2022-11-18T13:41:33.749Z,4.85
2022-11-18T13:44:38.010Z,4.38
2022-11-18T13:48:09.685Z,4.37
2022-11-18T13:51:12.383Z,4.47
2022-11-18T13:54:21.147Z,4.38
2022-11-18T13:57:26.416Z,5.00
2022-11-18T14:00:30.615Z,3.80
2022-11-18T14:03:35.215Z,4.03
2022-11-18T14:06:39.793Z,3.72
2022-11-18T14:09:53.965Z,3.55
2022-11-18T14:13:01.401Z,4.05
2022-11-18T14:16:23.617Z,3.70
2022-11-18T14:19:32.493Z,3.80
2022-11-18T14:22:34.791Z,4.10
2022-11-18T14:25:37.198Z,4.07
2022-11-18T14:28:39.705Z,3.40
2022-11-18T14:31:42.618Z,3.63
2022-11-18T14:34:46.700Z,3.63
2022-11-18T14:37:49.011Z,3.47
2022-11-18T14:40:56.984Z,3.83
2022-11-18T14:43:59.282Z,3.58
2022-11-18T14:47:15.893Z,3.58
2022-11-18T14:50:18.224Z,3.87
2022-11-18T14:53:21.385Z,3.63
2022-11-18T14:56:30.972Z,3.25
2022-11-18T14:59:33.240Z,3.70
2022-11-18T15:02:35.580Z,4.00
2022-11-18T15:05:38.232Z,3.23
2022-11-18T15:08:40.991Z,3.78
2022-11-18T15:11:43.344Z,3.83
2022-11-18T15:14:45.636Z,3.65
2022-11-18T15:17:53.645Z,3.60
2022-11-18T15:20:56.351Z,3.50
2022-11-18T15:23:58.661Z,3.67
2022-11-18T15:27:05.395Z,4.05
2022-11-18T15:30:08.512Z,4.57
2022-11-18T15:33:10.797Z,4.43
2022-11-18T15:36:14.946Z,4.17
2022-11-18T15:39:17.333Z,4.15
2022-11-18T15:42:23.325Z,4.32
2022-11-18T15:45:25.902Z,3.97
2022-11-18T15:48:28.126Z,4.57
2022-11-18T15:51:30.690Z,4.30
2022-11-18T15:54:32.954Z,3.60
2022-11-18T15:57:35.200Z,3.63
2022-11-18T16:00:37.479Z,4.28
2022-11-18T16:03:39.883Z,4.65
2022-11-18T16:06:45.005Z,4.20
2022-11-18T16:10:05.961Z,3.85
2022-11-18T16:13:08.289Z,4.05
2022-11-18T16:16:25.368Z,3.95
2022-11-18T16:19:31.443Z,3.70
2022-11-18T16:22:33.721Z,4.00
2022-11-18T16:25:36.033Z,3.75
2022-11-18T16:28:40.012Z,3.67
2022-11-18T16:31:50.751Z,4.00
2022-11-18T16:34:56.569Z,4.10
2022-11-18T16:38:02.271Z,3.53
2022-11-18T16:41:24.583Z,3.97
2022-11-18T16:44:26.891Z,4.38
2022-11-18T16:47:29.456Z,3.70
2022-11-18T16:50:31.949Z,3.83
2022-11-18T16:53:34.241Z,3.40
2022-11-18T16:56:36.695Z,3.72
2022-11-18T16:59:39.111Z,3.85
2022-11-18T17:02:41.656Z,3.85
2022-11-18T17:05:43.953Z,3.60
2022-11-18T17:08:46.357Z,3.73
2022-11-18T17:11:49.102Z,4.32
2022-11-18T17:14:51.363Z,4.00
2022-11-18T17:17:54.623Z,4.45
2022-11-18T17:20:56.870Z,3.70
2022-11-18T17:23:59.193Z,3.80
2022-11-18T17:27:01.512Z,3.60
2022-11-18T17:30:04.278Z,3.65
2022-11-18T17:33:07.408Z,3.85
2022-11-18T17:36:12.641Z,3.97
2022-11-18T17:39:16.010Z,3.80
2022-11-18T17:42:22.563Z,3.55
2022-11-18T17:45:24.833Z,3.63
2022-11-18T17:48:29.989Z,3.50
2022-11-18T17:51:32.842Z,3.80
2022-11-18T17:54:35.238Z,3.43
2022-11-18T17:57:37.508Z,4.05
2022-11-18T18:00:40.554Z,3.70
2022-11-18T18:03:43.309Z,3.70
2022-11-18T18:06:47.532Z,3.80
2022-11-18T18:09:50.059Z,3.50
2022-11-18T18:13:11.163Z,3.55
2022-11-18T18:16:13.686Z,3.60
2022-11-18T18:19:18.412Z,3.70
2022-11-18T18:22:20.749Z,4.18
2022-11-18T18:25:23.807Z,3.00
2022-11-18T18:28:26.204Z,4.07
2022-11-18T18:31:29.184Z,3.95
2022-11-18T18:34:31.454Z,3.75
2022-11-18T18:37:36.551Z,3.78
2022-11-18T18:40:38.819Z,3.40
2022-11-18T18:43:41.188Z,3.30
2022-11-18T18:46:43.495Z,3.53
2022-11-18T18:49:45.749Z,3.55
2022-11-18T18:52:48.262Z,3.88
2022-11-18T18:55:56.312Z,3.53
2022-11-18T18:58:58.826Z,3.60
2022-11-18T19:02:01.169Z,3.60
2022-11-18T19:05:04.064Z,3.22
2022-11-18T19:08:06.307Z,2.97
2022-11-18T19:11:08.612Z,3.40
2022-11-18T19:14:14.387Z,3.55
2022-11-18T19:17:17.578Z,3.28
2022-11-18T19:20:36.785Z,3.72
2022-11-18T19:23:39.755Z,3.63
2022-11-18T19:26:42.012Z,3.20
2022-11-18T19:29:44.322Z,3.70
2022-11-18T19:32:46.610Z,3.60
2022-11-18T19:35:48.952Z,3.28
2022-11-18T19:38:51.581Z,3.50
2022-11-18T19:41:54.020Z,3.40
2022-11-18T19:44:56.251Z,3.40
2022-11-18T19:47:59.424Z,3.20
2022-11-18T19:51:13.473Z,3.35
2022-11-18T19:54:15.708Z,3.50
2022-11-18T19:57:17.926Z,3.40
2022-11-18T20:00:20.410Z,3.50
2022-11-18T20:03:22.677Z,3.72
2022-11-18T20:06:27.127Z,4.00
2022-11-18T20:09:29.610Z,3.17
2022-11-18T20:12:31.831Z,3.43
2022-11-18T20:15:34.234Z,4.13
2022-11-18T20:18:37.362Z,3.92
2022-11-18T20:21:43.366Z,3.13
2022-11-18T20:24:45.742Z,3.55
2022-11-18T20:27:47.973Z,3.20
2022-11-18T20:30:55.535Z,3.45
2022-11-18T20:33:58.422Z,3.75
2022-11-18T20:37:00.939Z,3.45
2022-11-18T20:40:03.484Z,3.85
2022-11-18T20:43:14.668Z,3.70
2022-11-18T20:46:20.695Z,3.08
2022-11-18T20:49:23.554Z,3.72
2022-11-18T20:52:25.842Z,3.72
2022-11-18T20:55:28.253Z,3.50
2022-11-18T20:58:31.976Z,3.80
2022-11-18T21:01:34.435Z,3.58
2022-11-18T21:04:36.780Z,3.40
2022-11-18T21:07:39.099Z,3.45
2022-11-18T21:10:42.044Z,3.67
2022-11-18T21:14:03.065Z,3.50
2022-11-18T21:17:05.513Z,3.20
2022-11-18T21:20:28.216Z,3.67
2022-11-18T21:23:30.464Z,3.17
2022-11-18T21:26:34.561Z,3.70
2022-11-18T21:29:37.037Z,3.50
2022-11-18T21:32:39.267Z,3.28
2022-11-18T21:35:41.520Z,3.75
2022-11-18T21:38:44.108Z,3.50
2022-11-18T21:41:50.622Z,3.38
2022-11-18T21:44:56.068Z,4.00
2022-11-18T21:47:58.335Z,3.45
2022-11-18T21:51:02.110Z,3.28
2022-11-18T21:54:04.870Z,3.65
2022-11-18T21:57:07.122Z,3.58
2022-11-18T22:00:10.272Z,3.50
2022-11-18T22:03:13.846Z,3.13
2022-11-18T22:06:16.361Z,3.42
2022-11-18T22:09:18.730Z,2.97
2022-11-18T22:12:21.162Z,3.38
2022-11-18T22:15:24.718Z,3.03
2022-11-18T22:18:30.529Z,3.20
2022-11-18T22:21:32.856Z,3.40
2022-11-18T22:24:35.134Z,3.28
2022-11-18T22:27:37.381Z,3.65
2022-11-18T22:30:40.040Z,2.90
2022-11-18T22:33:42.800Z,3.42
2022-11-18T22:36:45.044Z,3.47
2022-11-18T22:39:47.520Z,3.10
2022-11-18T22:42:50.617Z,3.42
2022-11-18T22:46:07.754Z,2.73
2022-11-18T22:49:11.713Z,3.55
2022-11-18T22:52:13.985Z,2.67
2022-11-18T22:55:16.380Z,3.35
2022-11-18T22:58:18.637Z,3.60
2022-11-18T23:01:23.056Z,3.37
2022-11-18T23:04:25.406Z,3.00
2022-11-18T23:07:28.423Z,3.20
2022-11-18T23:10:30.826Z,3.63
2022-11-18T23:13:51.954Z,3.10
2022-11-18T23:16:54.235Z,3.20
2022-11-18T23:19:56.502Z,3.30
2022-11-18T23:22:58.844Z,2.90
2022-11-18T23:26:05.376Z,3.10
2022-11-18T23:29:08.123Z,3.33
2022-11-18T23:32:10.607Z,3.40
2022-11-18T23:35:12.919Z,3.38
2022-11-18T23:38:15.245Z,3.00
2022-11-18T23:41:18.267Z,3.22
2022-11-18T23:44:40.483Z,3.60
2022-11-18T23:47:42.764Z,2.80
2022-11-18T23:51:02.730Z,3.22
2022-11-18T23:54:05.124Z,2.88
2022-11-18T23:57:07.748Z,3.40
